Time;durP1;ratioP1;P1;durP2;ratioP2;P2;SDS_P1;SDS_P2;PMS_P1;PMS_P2;Temp;Humidity;BMP_temperature;BMP_pressure;BME280_temperature;BME280_humidity;BME280_pressure;Samples;Min_cycle;Max_cycle;Signal;HPM_P1;HPM_P2
2023/01/25 00:02:25;;;;;;;315.27;59.08;;;2.30;99.90;;;0.97;100.00;98923.72;5051166;28;20411;-79
2023/01/25 00:04:51;;;;;;;266.02;55.28;;;2.30;99.90;;;0.97;100.00;98929.75;5052357;28;20405;-78
2023/01/25 00:07:17;;;;;;;275.50;56.42;;;2.30;99.90;;;0.99;100.00;98927.78;5052380;28;20420;-79
2023/01/25 00:09:43;;;;;;;310.17;59.85;;;2.30;99.90;;;0.99;100.00;98925.16;5050688;28;20409;-78
2023/01/25 00:12:09;;;;;;;268.23;57.53;;;2.30;99.90;;;1.00;100.00;98915.56;5067518;22;20494;-78
2023/01/25 00:14:35;;;;;;;309.98;62.00;;;2.30;99.90;;;0.99;100.00;98914.75;5051498;28;20879;-76
2023/01/25 00:17:03;;;;;;;315.20;60.15;;;2.30;99.90;;;0.99;100.00;98906.09;5051426;28;20764;-75
2023/01/25 00:19:29;;;;;;;248.32;56.67;;;2.30;99.90;;;1.01;100.00;98909.38;5051343;28;20895;-76
2023/01/25 00:21:55;;;;;;;242.93;54.13;;;2.30;99.90;;;1.00;100.00;98903.34;5051262;28;20445;-75
2023/01/25 00:24:24;;;;;;;333.87;63.57;;;2.30;99.90;;;0.99;100.00;98901.72;5051472;28;20420;-76
2023/01/25 00:26:50;;;;;;;267.25;56.03;;;2.30;99.90;;;0.99;100.00;98898.28;5051504;28;20424;-75
2023/01/25 00:29:16;;;;;;;247.52;55.88;;;2.30;99.90;;;1.00;100.00;98908.56;5051405;28;20397;-75
2023/01/25 00:31:57;;;;;;;314.02;62.35;;;2.30;99.90;;;0.99;100.00;98906.91;5049943;28;21088;-77
2023/01/25 00:34:46;;;;;;;315.30;62.00;;;2.30;99.90;;;0.98;100.00;98897.47;5051406;28;20392;-76
2023/01/25 00:37:22;;;;;;;325.15;61.47;;;2.30;99.90;;;0.99;100.00;98913.91;5051557;28;20496;-75
2023/01/25 00:39:48;;;;;;;303.13;61.13;;;2.30;99.90;;;0.97;100.00;98906.28;5050949;28;20383;-76
2023/01/25 00:42:17;;;;;;;332.27;60.97;;;2.30;99.90;;;0.97;100.00;98908.88;5051223;28;20433;-76
2023/01/25 00:44:43;;;;;;;292.30;57.25;;;2.30;99.90;;;1.00;100.00;98912.97;5051110;28;20397;-76
2023/01/25 00:47:09;;;;;;;286.17;56.70;;;2.30;99.90;;;0.99;100.00;98909.53;5051192;28;20424;-75
2023/01/25 00:49:36;;;;;;;260.08;55.88;;;2.30;99.90;;;1.00;100.00;98905.13;5051083;28;20759;-76
2023/01/25 00:52:04;;;;;;;264.95;54.63;;;2.30;99.90;;;1.00;100.00;98900.75;5051087;28;20401;-76
2023/01/25 00:54:30;;;;;;;295.02;56.95;;;2.30;99.90;;;1.01;100.00;98898.94;5051018;28;20444;-76
2023/01/25 00:56:56;;;;;;;298.48;61.30;;;2.30;99.90;;;1.02;100.00;98897.97;5051083;28;20436;-76
2023/01/25 00:59:23;;;;;;;303.73;61.78;;;2.30;99.90;;;1.02;100.00;98887.56;5050865;28;20806;-76
2023/01/25 01:01:50;;;;;;;261.77;57.45;;;2.30;99.90;;;1.01;100.00;98886.75;5050577;28;20436;-76
2023/01/25 01:04:16;;;;;;;285.00;57.00;;;2.30;99.90;;;1.01;100.00;98886.75;5050783;28;20484;-76
2023/01/25 01:06:42;;;;;;;230.85;51.50;;;2.30;99.90;;;1.02;100.00;98884.94;5050741;28;20406;-76
2023/01/25 01:09:14;;;;;;;259.13;54.13;;;2.30;99.90;;;1.01;100.00;98885.91;5050541;28;20401;-76
2023/01/25 01:11:41;;;;;;;263.73;56.60;;;2.30;99.90;;;1.01;100.00;98888.53;5049868;28;20791;-76
2023/01/25 01:14:07;;;;;;;227.75;51.97;;;2.30;99.90;;;1.01;100.00;98891.13;5050613;28;20401;-76
2023/01/25 01:16:34;;;;;;;274.05;57.78;;;2.30;99.90;;;1.01;100.00;98880.69;5050596;28;20402;-76
2023/01/25 01:19:00;;;;;;;306.13;57.77;;;2.30;99.90;;;1.00;100.00;98884.28;5050547;28;20408;-76
2023/01/25 01:21:26;;;;;;;342.77;64.28;;;2.30;99.90;;;1.00;100.00;98877.28;5050300;28;20421;-76
2023/01/25 01:23:53;;;;;;;293.83;57.75;;;2.30;99.90;;;1.01;100.00;98885.91;5050461;28;20438;-76
2023/01/25 01:26:21;;;;;;;284.67;57.43;;;2.30;99.90;;;1.00;100.00;98892.91;5050598;28;20502;-76
2023/01/25 01:28:47;;;;;;;273.08;55.13;;;2.30;99.90;;;0.99;100.00;98891.28;5050255;28;20401;-76
2023/01/25 01:31:15;;;;;;;246.18;53.75;;;2.30;99.90;;;1.00;100.00;98886.88;5049035;28;20760;-76
2023/01/25 01:33:41;;;;;;;340.00;65.43;;;2.30;99.90;;;0.99;100.00;98883.47;5050423;28;20414;-76
2023/01/25 01:36:09;;;;;;;299.23;59.73;;;2.30;99.90;;;1.00;100.00;98884.28;5050248;28;20458;-76
2023/01/25 01:38:36;;;;;;;286.95;57.40;;;2.30;99.90;;;1.00;100.00;98885.09;5050202;28;20779;-76
2023/01/25 01:41:02;;;;;;;281.48;56.50;;;2.30;99.90;;;0.99;100.00;98883.47;5048829;28;20420;-76
2023/01/25 01:43:32;;;;;;;300.33;58.57;;;2.30;99.90;;;0.98;100.00;98879.22;5050186;28;20513;-76
2023/01/25 01:46:00;;;;;;;270.97;55.50;;;2.30;99.90;;;0.99;100.00;98882.63;5050255;28;20484;-76
2023/01/25 01:48:35;;;;;;;239.48;52.85;;;2.30;99.90;;;0.99;100.00;98883.47;5050143;28;20484;-76
2023/01/25 01:51:09;;;;;;;277.23;57.13;;;2.30;99.90;;;0.98;100.00;98884.41;5049998;28;20882;-76
2023/01/25 01:53:36;;;;;;;241.40;53.30;;;2.30;99.90;;;1.00;100.00;98885.09;5048956;28;20406;-76
2023/01/25 01:56:08;;;;;;;288.73;54.92;;;2.30;99.90;;;1.00;100.00;98885.09;5050080;28;20401;-76
2023/01/25 01:58:36;;;;;;;242.30;51.00;;;2.30;99.90;;;1.01;100.00;98884.13;5050053;28;20479;-76
2023/01/25 02:01:03;;;;;;;306.52;56.97;;;2.30;99.90;;;1.00;100.00;98885.09;5050067;28;20902;-75
2023/01/25 02:03:30;;;;;;;278.25;54.63;;;2.30;99.90;;;1.00;100.00;98886.88;5050040;28;20398;-75
2023/01/25 02:06:02;;;;;;;240.93;51.70;;;2.30;99.90;;;1.01;100.00;98884.13;5050261;28;20495;-75
2023/01/25 02:08:33;;;;;;;247.15;54.25;;;2.30;99.90;;;1.03;100.00;98886.59;5050107;28;20410;-75
2023/01/25 02:11:00;;;;;;;242.52;52.95;;;2.30;99.90;;;1.03;100.00;98876.97;5050056;28;20397;-76
2023/01/25 02:13:26;;;;;;;251.02;52.22;;;2.30;99.90;;;1.04;100.00;98883.00;5050086;28;20409;-76
2023/01/25 02:15:55;;;;;;;285.10;57.47;;;2.30;99.90;;;1.03;100.00;98881.38;5050024;28;20399;-76
2023/01/25 02:18:22;;;;;;;260.77;53.47;;;2.30;99.90;;;1.02;100.00;98875.34;5049818;28;20401;-76
2023/01/25 02:20:52;;;;;;;246.88;52.40;;;2.30;99.90;;;1.03;100.00;98873.56;5049649;28;20924;-75
2023/01/25 02:23:28;;;;;;;262.42;54.42;;;2.30;99.90;;;1.02;100.00;98870.13;5053508;28;20417;-76
2023/01/25 02:25:59;;;;;;;248.63;53.23;;;2.30;99.90;;;1.01;100.00;98878.91;5053956;28;20879;-76
2023/01/25 02:28:29;;;;;;;265.40;53.75;;;2.30;99.90;;;1.02;100.00;98883.16;5053802;28;20393;-76
2023/01/25 02:30:55;;;;;;;271.15;54.80;;;2.30;99.90;;;1.01;100.00;98871.09;5053763;28;20884;-76
2023/01/25 02:33:22;;;;;;;284.23;55.80;;;2.30;99.90;;;1.01;100.00;98871.09;5053715;28;20480;-76
2023/01/25 02:35:52;;;;;;;269.77;55.33;;;2.30;99.90;;;1.01;100.00;98865.06;5053758;28;20556;-76
2023/01/25 02:38:20;;;;;;;301.27;57.58;;;2.30;99.90;;;1.00;100.00;98866.03;5053728;28;20412;-76
2023/01/25 02:40:52;;;;;;;259.20;53.97;;;2.30;99.90;;;1.01;100.00;98858.06;5053156;28;20463;-76
2023/01/25 02:43:22;;;;;;;246.82;53.83;;;2.30;99.90;;;1.02;100.00;98854.47;5053445;28;20909;-76
2023/01/25 02:45:56;;;;;;;279.83;57.17;;;2.30;99.90;;;1.02;100.00;98856.28;5053481;28;20393;-76
2023/01/25 02:48:22;;;;;;;251.85;52.17;;;2.30;99.90;;;1.02;100.00;98870.13;5053343;28;20482;-76
2023/01/25 02:50:48;;;;;;;273.35;54.35;;;2.30;99.90;;;1.02;100.00;98864.09;5053134;28;20875;-76
2023/01/25 02:53:14;;;;;;;252.20;52.45;;;2.30;99.90;;;1.01;100.00;98863.28;5053269;28;20404;-75
2023/01/25 02:55:40;;;;;;;265.48;53.13;;;2.30;99.90;;;1.02;100.00;98858.88;5053256;28;20401;-76
2023/01/25 02:58:06;;;;;;;244.53;49.50;;;2.30;99.90;;;1.01;100.00;98850.22;5053378;28;20890;-76
2023/01/25 03:00:33;;;;;;;291.33;55.08;;;2.30;99.90;;;1.02;100.00;98848.44;5052828;28;20464;-76
2023/01/25 03:02:59;;;;;;;240.75;52.58;;;2.30;99.90;;;1.03;100.00;98848.31;5053141;28;20397;-76
2023/01/25 03:05:25;;;;;;;241.07;51.88;;;2.30;99.90;;;1.04;100.00;98846.50;5053004;28;20878;-76
2023/01/25 03:07:51;;;;;;;270.65;52.83;;;2.30;99.90;;;1.02;100.00;98841.44;5053101;28;20882;-76
2023/01/25 03:10:17;;;;;;;226.35;48.67;;;2.30;99.90;;;1.03;100.00;98837.06;5052762;28;20450;-76
2023/01/25 03:12:43;;;;;;;267.17;53.15;;;2.30;99.90;;;1.02;100.00;98838.84;5052970;28;20409;-76
2023/01/25 03:15:09;;;;;;;276.98;51.85;;;2.30;99.90;;;1.02;100.00;98835.41;5052913;28;20406;-76
2023/01/25 03:17:36;;;;;;;286.27;55.55;;;2.30;99.90;;;1.01;100.00;98826.78;5051669;28;20409;-76
2023/01/25 03:20:05;;;;;;;261.95;52.92;;;2.30;99.90;;;1.00;100.00;98825.13;5052602;28;20404;-76
2023/01/25 03:22:31;;;;;;;297.63;53.93;;;2.30;99.90;;;0.98;100.00;98811.44;5052813;28;20398;-76
2023/01/25 03:24:57;;;;;;;233.05;48.63;;;2.30;99.90;;;0.98;100.00;98824.47;5052769;28;20500;-76
2023/01/25 03:27:22;;;;;;;261.00;52.38;;;2.30;99.90;;;0.98;100.00;98810.59;5052643;28;20393;-76
2023/01/25 03:29:48;;;;;;;196.90;44.20;;;2.30;99.90;;;1.00;100.00;98812.09;5051277;28;20912;-76
2023/01/25 03:32:14;;;;;;;270.47;53.20;;;2.30;99.90;;;0.98;100.00;98811.44;5052625;28;20424;-76
2023/01/25 03:34:42;;;;;;;229.13;47.72;;;2.30;99.90;;;0.98;100.00;98803.59;5051921;28;20429;-76
2023/01/25 03:37:07;;;;;;;256.05;50.20;;;2.30;99.90;;;0.98;100.00;98813.22;5051311;28;20413;-76
2023/01/25 03:39:33;;;;;;;190.15;44.47;;;2.30;99.90;;;1.01;100.00;98805.09;5052548;28;20492;-75
2023/01/25 03:41:59;;;;;;;234.45;49.47;;;2.30;99.90;;;0.99;100.00;98810.47;5052331;28;20513;-75
2023/01/25 03:44:25;;;;;;;261.75;52.80;;;2.30;99.90;;;0.98;100.00;98815.81;5052382;28;20817;-76
2023/01/25 03:46:51;;;;;;;237.33;47.20;;;2.30;99.90;;;0.97;100.00;98812.44;5052361;28;20496;-76
2023/01/25 03:49:17;;;;;;;254.45;52.97;;;2.30;99.90;;;1.01;100.00;98815.53;5052327;28;20394;-76
2023/01/25 03:51:44;;;;;;;260.47;51.67;;;2.30;99.90;;;0.99;100.00;98810.47;5052330;28;20898;-75
2023/01/25 03:54:10;;;;;;;247.85;49.90;;;2.30;99.90;;;1.01;100.00;98800.69;5052128;28;20398;-76
2023/01/25 03:56:37;;;;;;;231.75;46.63;;;2.30;99.90;;;0.99;100.00;98802.63;5052208;28;20408;-76
2023/01/25 03:59:03;;;;;;;236.52;49.28;;;2.30;99.90;;;1.01;100.00;98805.91;5052037;28;20439;-76
2023/01/25 04:01:29;;;;;;;214.90;46.50;;;2.30;99.90;;;1.01;100.00;98802.50;5051857;28;20419;-76
2023/01/25 04:03:55;;;;;;;258.25;49.65;;;2.30;99.90;;;0.99;100.00;98807.03;5052073;28;20397;-76
2023/01/25 04:06:21;;;;;;;263.77;50.58;;;2.30;99.90;;;1.00;100.00;98808.66;5052053;28;20472;-75
2023/01/25 04:08:48;;;;;;;224.10;47.45;;;2.30;99.90;;;1.01;100.00;98802.50;5051838;28;20435;-76
2023/01/25 04:11:14;;;;;;;257.27;50.60;;;2.30;99.90;;;1.00;100.00;98803.47;5051115;28;20469;-76
2023/01/25 04:13:40;;;;;;;269.60;49.30;;;2.30;99.90;;;0.99;100.00;98802.63;5049599;28;20415;-75
2023/01/25 04:16:10;;;;;;;256.38;50.25;;;2.30;99.90;;;0.99;100.00;98807.03;5050838;28;20450;-76
2023/01/25 04:18:36;;;;;;;249.52;48.90;;;2.30;99.90;;;0.99;100.00;98802.63;5050773;28;20429;-76
2023/01/25 04:21:02;;;;;;;248.40;50.00;;;2.30;99.90;;;0.99;100.00;98801.81;5050575;28;20417;-76
2023/01/25 04:23:28;;;;;;;253.67;50.13;;;2.30;99.90;;;0.98;100.00;98800.19;5050716;28;20578;-76
2023/01/25 04:25:57;;;;;;;239.77;48.83;;;2.30;99.90;;;0.98;100.00;98802.78;5050656;28;20962;-76
2023/01/25 04:28:24;;;;;;;207.75;45.40;;;2.30;99.90;;;0.99;100.00;98797.41;5050724;28;20437;-75
2023/01/25 04:30:50;;;;;;;214.63;45.88;;;2.30;99.90;;;0.99;100.00;98802.63;5050295;28;20973;-75
2023/01/25 04:33:16;;;;;;;228.13;46.77;;;2.30;99.90;;;1.00;100.00;98806.06;5050632;28;20440;-76
2023/01/25 04:35:43;;;;;;;275.58;53.67;;;2.30;99.90;;;0.98;100.00;98795.78;5050588;28;20405;-76
2023/01/25 04:38:10;;;;;;;263.83;50.40;;;2.30;99.90;;;0.97;100.00;98786.34;5050498;28;20421;-76
2023/01/25 04:40:36;;;;;;;253.32;50.42;;;2.30;99.90;;;0.97;100.00;98785.53;5031515;28;20426;-76
2023/01/25 04:43:05;;;;;;;255.52;49.78;;;2.30;99.90;;;0.96;100.00;98789.13;5050148;28;20918;-76
2023/01/25 04:45:32;;;;;;;273.20;49.53;;;2.30;99.90;;;0.95;100.00;98790.91;5048927;28;20401;-76
2023/01/25 04:48:02;;;;;;;234.43;47.70;;;2.30;99.90;;;0.96;100.00;98789.94;5045341;28;20409;-76
2023/01/25 04:50:28;;;;;;;228.27;46.27;;;2.30;99.90;;;0.96;100.00;98789.94;5047727;28;20447;-76
2023/01/25 04:52:53;;;;;;;225.75;44.85;;;2.30;99.90;;;0.98;100.00;98794.97;5039252;28;20837;-76
2023/01/25 04:55:20;;;;;;;223.57;47.53;;;2.30;99.90;;;0.95;100.00;98788.28;5040787;28;20507;-76
2023/01/25 04:57:48;;;;;;;210.65;44.63;;;2.30;99.90;;;0.97;100.00;98788.16;5040658;28;20459;-76
2023/01/25 05:00:17;;;;;;;227.65;44.58;;;2.30;99.90;;;0.97;100.00;98793.34;5039578;28;20465;-76
2023/01/25 05:02:43;;;;;;;185.32;39.70;;;2.30;99.90;;;0.98;100.00;98787.16;5040366;28;20397;-77
2023/01/25 05:05:09;;;;;;;227.95;45.20;;;2.30;99.90;;;0.96;100.00;98783.91;5042839;28;20492;-77
2023/01/25 05:07:35;;;;;;;235.52;48.17;;;2.20;99.90;;;0.96;100.00;98786.50;5031868;28;20778;-77
2023/01/25 05:10:03;;;;;;;212.13;44.53;;;2.30;99.90;;;0.98;100.00;98789.75;5005920;28;1758724;-78
2023/01/25 05:12:28;;;;;;;225.80;44.67;;;2.30;99.90;;;0.97;100.00;98783.75;5048813;28;20457;-79
2023/01/25 05:14:54;;;;;;;229.80;45.42;;;2.30;99.90;;;0.96;100.00;98787.31;5047936;28;20825;-78
2023/01/25 05:17:24;;;;;;;214.35;45.63;;;2.30;99.90;;;0.97;100.00;98785.53;5047606;28;20960;-77
2023/01/25 05:19:50;;;;;;;232.55;45.30;;;2.20;99.90;;;0.94;100.00;98778.84;5049953;28;20420;-77
2023/01/25 05:22:19;;;;;;;191.07;40.93;;;2.20;99.90;;;0.94;100.00;98785.84;5050080;28;20819;-78
2023/01/25 05:24:46;;;;;;;205.40;41.47;;;2.20;99.90;;;0.93;100.00;98781.59;5050050;28;20413;-77
2023/01/25 05:27:14;;;;;;;212.68;42.58;;;2.20;99.90;;;0.92;100.00;98783.38;5046714;28;20467;-77
2023/01/25 05:29:42;;;;;;;222.48;47.75;;;2.20;99.90;;;0.94;100.00;98780.63;5038829;28;20411;-77
2023/01/25 05:32:12;;;;;;;224.75;43.85;;;2.20;99.90;;;0.92;100.00;98774.72;5046004;28;20394;-78
2023/01/25 05:34:40;;;;;;;165.05;37.67;;;2.20;99.90;;;0.95;100.00;98772.66;5045757;28;20401;-79
2023/01/25 05:37:10;;;;;;;210.63;43.45;;;2.20;99.90;;;0.95;100.00;98777.03;5044876;28;20460;-80
2023/01/25 05:39:36;;;;;;;177.63;38.45;;;2.20;99.90;;;0.93;100.00;98771.16;5038671;28;20461;-80
2023/01/25 05:42:02;;;;;;;184.50;39.75;;;2.20;99.90;;;0.93;100.00;98769.38;5041508;28;20806;-79
2023/01/25 05:44:28;;;;;;;182.20;40.08;;;2.20;99.90;;;0.95;100.00;98774.44;5040258;28;20952;-79
2023/01/25 05:46:54;;;;;;;207.85;43.38;;;2.20;99.90;;;0.93;100.00;98774.59;5040336;28;20428;-80
2023/01/25 05:49:20;;;;;;;207.43;43.42;;;2.20;99.90;;;0.94;100.00;98773.63;5042856;28;20401;-82
2023/01/25 05:51:47;;;;;;;201.95;44.25;;;2.20;99.90;;;0.92;100.00;98769.53;5042213;28;20963;-80
2023/01/25 05:54:16;;;;;;;202.45;45.35;;;2.20;99.90;;;0.91;100.00;98765.28;5040107;28;20469;-80
2023/01/25 05:56:44;;;;;;;205.07;43.65;;;2.20;99.90;;;0.91;100.00;98768.69;5043255;28;20464;-78
2023/01/25 05:59:11;;;;;;;181.00;41.00;;;2.20;99.90;;;0.94;100.00;98762.38;5056668;28;20430;-80
2023/01/25 06:01:38;;;;;;;216.55;46.38;;;2.20;99.90;;;0.92;100.00;98761.69;5064493;28;20421;-80
2023/01/25 06:04:04;;;;;;;203.57;43.70;;;2.20;99.90;;;0.90;100.00;98764.50;5036081;28;20441;-80
2023/01/25 06:06:30;;;;;;;213.25;45.10;;;2.20;99.90;;;0.91;100.00;98770.50;5049981;28;21006;-81
2023/01/25 06:08:57;;;;;;;202.20;45.53;;;2.20;99.90;;;0.91;100.00;98760.88;5050148;28;20409;-79
2023/01/25 06:11:23;;;;;;;214.52;45.45;;;2.20;99.90;;;0.91;100.00;98762.66;5074956;22;20565;-76
2023/01/25 06:13:50;;;;;;;183.20;42.85;;;2.20;99.90;;;0.91;100.00;98763.50;5069922;28;20396;-76
2023/01/25 06:16:17;;;;;;;208.93;43.58;;;2.20;99.90;;;0.91;100.00;98757.47;5070040;28;20402;-76
2023/01/25 06:18:43;;;;;;;190.82;42.30;;;2.20;99.90;;;0.92;100.00;98757.31;5069923;28;20396;-76
2023/01/25 06:21:09;;;;;;;209.05;43.92;;;2.30;99.90;;;0.92;100.00;98762.53;5069772;28;20422;-75
2023/01/25 06:23:35;;;;;;;209.25;42.95;;;2.20;99.90;;;0.91;100.00;98763.50;5070167;28;20803;-76
2023/01/25 06:26:05;;;;;;;201.65;42.47;;;2.20;99.90;;;0.93;100.00;98758.94;5070006;28;20483;-76
2023/01/25 06:28:33;;;;;;;204.52;42.55;;;2.20;99.90;;;0.93;100.00;98760.72;5069945;28;20959;-76
2023/01/25 06:31:07;;;;;;;169.65;39.75;;;2.20;99.90;;;0.93;100.00;98761.56;5069657;28;20420;-76
2023/01/25 06:33:33;;;;;;;201.45;43.25;;;2.20;99.90;;;0.94;100.00;98757.97;5069826;28;20430;-76
2023/01/25 06:36:01;;;;;;;184.07;40.15;;;2.20;99.90;;;0.92;100.00;98757.31;5069926;28;20399;-76
2023/01/25 06:38:27;;;;;;;183.35;40.97;;;2.20;99.90;;;0.93;100.00;98750.31;5069895;28;20403;-76
2023/01/25 06:40:53;;;;;;;189.05;41.63;;;2.20;99.90;;;0.91;100.00;98755.66;5069197;28;20427;-76
2023/01/25 06:43:20;;;;;;;192.70;42.50;;;2.20;99.90;;;0.90;100.00;98748.03;5069385;28;20400;-75
2023/01/25 06:45:46;;;;;;;186.55;40.10;;;2.20;99.90;;;0.92;100.00;98746.88;5069858;28;20469;-75
2023/01/25 06:48:12;;;;;;;216.93;43.65;;;2.20;99.90;;;0.91;100.00;98753.06;5069653;28;20884;-75
2023/01/25 06:50:38;;;;;;;198.87;42.17;;;2.20;99.90;;;0.92;100.00;98744.28;5069465;28;20403;-76
2023/01/25 06:53:03;;;;;;;200.68;42.03;;;2.20;99.90;;;0.92;100.00;98741.66;5069473;28;20400;-76
2023/01/25 06:55:29;;;;;;;178.70;40.20;;;2.20;99.90;;;0.92;100.00;98739.06;5069723;28;20461;-76
2023/01/25 06:58:00;;;;;;;183.45;41.35;;;2.20;99.90;;;0.91;100.00;98741.81;5069876;28;20392;-75
2023/01/25 07:00:27;;;;;;;201.38;42.13;;;2.20;99.90;;;0.91;100.00;98747.84;5069389;28;20400;-76
2023/01/25 07:02:53;;;;;;;173.50;39.42;;;2.20;99.90;;;0.90;100.00;98733.22;5050626;28;20411;-76
2023/01/25 07:05:19;;;;;;;206.30;44.45;;;2.20;99.90;;;0.90;100.00;98737.59;5064681;28;20486;-76
2023/01/25 07:07:46;;;;;;;211.73;44.63;;;2.20;99.90;;;0.90;100.00;98735.81;5067276;28;20831;-76
2023/01/25 07:10:12;;;;;;;181.00;41.90;;;2.20;99.90;;;0.91;100.00;98731.38;5063104;28;20423;-76
2023/01/25 07:12:38;;;;;;;204.10;49.42;;;2.20;99.90;;;0.91;100.00;98728.78;5055807;28;20481;-76
2023/01/25 07:15:04;;;;;;;203.30;45.03;;;2.20;99.90;;;0.91;100.00;98723.56;5063407;28;20415;-76
2023/01/25 07:17:32;;;;;;;178.60;41.58;;;2.20;99.90;;;0.92;100.00;98727.81;5067198;28;20400;-76
2023/01/25 07:19:58;;;;;;;192.45;42.75;;;2.20;99.90;;;0.94;100.00;98728.47;5069829;28;20436;-76
2023/01/25 07:22:26;;;;;;;200.88;43.58;;;2.20;99.90;;;0.92;100.00;98726.03;5072665;28;20807;-77
2023/01/25 07:24:52;;;;;;;189.32;41.53;;;2.20;99.90;;;0.92;100.00;98727.81;5072921;28;20403;-77
2023/01/25 07:27:18;;;;;;;187.98;42.33;;;2.20;99.90;;;0.92;100.00;98733.84;5072904;28;20400;-76
2023/01/25 07:29:44;;;;;;;205.63;43.63;;;2.20;99.90;;;0.93;100.00;98729.44;5072662;28;20424;-76
2023/01/25 07:32:13;;;;;;;195.07;42.40;;;2.20;99.90;;;0.94;100.00;98723.28;5072600;28;20400;-76
2023/01/25 07:34:40;;;;;;;197.40;42.87;;;2.20;99.90;;;0.94;100.00;98724.09;5072542;28;20404;-75
2023/01/25 07:37:08;;;;;;;196.48;40.80;;;2.20;99.90;;;0.95;100.00;98725.72;5072501;28;20393;-76
2023/01/25 07:39:34;;;;;;;202.93;45.27;;;2.20;99.90;;;0.98;100.00;98714.16;5072490;28;20527;-76
2023/01/25 07:42:00;;;;;;;207.15;44.13;;;2.30;99.90;;;0.97;100.00;98715.16;5072423;28;20457;-75
2023/01/25 07:44:26;;;;;;;191.68;42.70;;;2.30;99.90;;;0.99;100.00;98723.59;5070794;28;20420;-75
2023/01/25 07:46:53;;;;;;;192.47;43.30;;;2.20;99.90;;;0.99;100.00;98713.19;5068676;28;20610;-75
2023/01/25 07:49:19;;;;;;;177.43;39.55;;;2.30;99.90;;;0.99;100.00;98711.38;5069331;28;20928;-76
2023/01/25 07:51:47;;;;;;;218.15;45.80;;;2.30;99.90;;;0.98;100.00;98714.97;5049416;28;20493;-76
2023/01/25 07:54:13;;;;;;;177.57;40.50;;;2.30;99.90;;;0.99;100.00;98713.19;5071777;28;20990;-75
2023/01/25 07:56:39;;;;;;;196.90;43.47;;;2.30;99.90;;;1.00;100.00;98714.81;5072335;28;20966;-76
2023/01/25 07:59:09;;;;;;;211.73;45.58;;;2.30;99.90;;;1.00;100.00;98709.59;5073749;28;20439;-75
2023/01/25 08:01:35;;;;;;;200.02;41.70;;;2.30;99.90;;;1.01;100.00;98717.28;5070019;28;20419;-79
2023/01/25 08:04:03;;;;;;;199.13;42.92;;;2.30;99.90;;;1.01;100.00;98709.44;5074242;28;20465;-77
2023/01/25 08:06:34;;;;;;;195.35;41.45;;;2.30;99.90;;;1.04;100.00;98718.75;5070612;28;20410;-78
2023/01/25 08:09:06;;;;;;;162.45;38.10;;;2.30;99.90;;;1.04;100.00;98716.97;5070389;28;20486;-78
2023/01/25 08:11:32;;;;;;;163.27;37.90;;;2.30;99.90;;;1.07;100.00;98715.81;5070581;28;20453;-77
2023/01/25 08:14:00;;;;;;;188.48;41.40;;;2.40;99.90;;;1.07;100.00;98718.41;5076956;28;20903;-76
2023/01/25 08:16:27;;;;;;;172.10;39.88;;;2.40;99.90;;;1.09;100.00;98719.91;5081722;28;20508;-76
2023/01/25 08:18:56;;;;;;;169.52;40.47;;;2.40;99.90;;;1.08;100.00;98718.28;5071420;28;20410;-76
2023/01/25 08:21:27;;;;;;;163.07;38.20;;;2.40;99.90;;;1.10;100.00;98718.94;5070860;28;20935;-77
2023/01/25 08:23:53;;;;;;;178.75;41.17;;;2.40;99.90;;;1.11;100.00;98717.16;5070700;28;20404;-76
2023/01/25 08:26:21;;;;;;;191.02;42.42;;;2.40;99.90;;;1.10;100.00;98711.13;5071367;28;20419;-77
2023/01/25 08:28:47;;;;;;;168.93;39.45;;;2.40;99.90;;;1.13;100.00;98720.38;5071918;28;20495;-76
2023/01/25 08:31:15;;;;;;;167.93;39.33;;;2.40;99.90;;;1.14;100.00;98717.63;5083065;28;20490;-75
2023/01/25 08:33:43;;;;;;;173.05;39.35;;;2.40;99.90;;;1.14;100.00;98724.63;5073360;28;20398;-76
2023/01/25 08:36:09;;;;;;;162.20;39.13;;;2.40;99.90;;;1.15;100.00;98729.69;5062534;28;20829;-75
2023/01/25 08:38:36;;;;;;;170.25;40.42;;;2.40;99.90;;;1.16;100.00;98715.69;5068880;28;20436;-76
2023/01/25 08:41:06;;;;;;;174.88;39.72;;;2.40;99.90;;;1.18;100.00;98712.94;5068375;28;20420;-77
2023/01/25 08:43:34;;;;;;;168.73;40.50;;;2.50;99.90;;;1.17;100.00;98717.31;5070073;28;20491;-76
2023/01/25 08:45:59;;;;;;;172.05;39.47;;;2.50;99.90;;;1.19;100.00;98711.97;5071867;28;20470;-76
2023/01/25 08:48:25;;;;;;;162.00;38.67;;;2.50;99.90;;;1.19;100.00;98701.53;5069421;28;20426;-76
2023/01/25 08:50:51;;;;;;;172.40;40.15;;;2.50;99.90;;;1.21;100.00;98709.97;5070341;28;20405;-76
2023/01/25 08:53:19;;;;;;;165.97;41.40;;;2.50;99.90;;;1.24;100.00;98698.44;5069807;28;20431;-76
2023/01/25 08:55:45;;;;;;;193.25;42.97;;;2.50;99.90;;;1.22;100.00;98706.41;5069598;28;20919;-76
2023/01/25 08:58:12;;;;;;;174.18;41.45;;;2.50;99.90;;;1.22;100.00;98690.75;5070418;28;20880;-76
2023/01/25 09:00:41;;;;;;;169.30;39.00;;;2.50;99.90;;;1.21;100.00;98694.34;5070758;28;20406;-81
2023/01/25 09:03:09;;;;;;;176.93;40.88;;;2.50;99.90;;;1.20;100.00;98684.09;5085586;28;20448;-79
2023/01/25 09:05:36;;;;;;;175.07;38.78;;;2.50;99.90;;;1.21;100.00;98693.53;5076205;28;20407;-75
2023/01/25 09:08:03;;;;;;;161.60;39.95;;;2.50;99.90;;;1.21;100.00;98688.31;5074776;28;20413;-77
2023/01/25 09:10:29;;;;;;;155.73;38.45;;;2.50;99.90;;;1.22;100.00;98687.34;5069940;28;20423;-79
2023/01/25 09:12:55;;;;;;;158.18;37.97;;;2.50;99.90;;;1.21;100.00;98683.91;5073072;28;20455;-79
2023/01/25 09:15:21;;;;;;;158.77;39.03;;;2.50;99.90;;;1.26;100.00;98691.28;5072639;28;20491;-78
2023/01/25 09:17:51;;;;;;;163.40;37.30;;;2.50;99.90;;;1.26;100.00;98684.25;5070638;28;20404;-80
2023/01/25 09:20:17;;;;;;;172.07;38.88;;;2.50;99.90;;;1.25;100.00;98681.81;5076712;28;20490;-76
2023/01/25 09:22:43;;;;;;;175.60;39.83;;;2.50;99.90;;;1.26;100.00;98686.06;5069911;28;20900;-80
2023/01/25 09:25:10;;;;;;;147.23;35.60;;;2.50;99.90;;;1.28;100.00;98684.91;5070467;28;20411;-78
2023/01/25 09:27:36;;;;;;;144.63;37.72;;;2.60;99.90;;;1.33;100.00;98680.03;5071188;28;20460;-76
2023/01/25 09:30:03;;;;;;;149.88;36.67;;;2.60;99.90;;;1.32;100.00;98675.78;5058131;28;20796;-76
2023/01/25 09:32:29;;;;;;;147.18;35.40;;;2.60;99.90;;;1.35;100.00;98685.09;5088236;28;20485;-77
2023/01/25 09:34:56;;;;;;;165.98;40.55;;;2.60;99.90;;;1.33;100.00;98684.44;5073816;28;20837;-79
2023/01/25 09:37:22;;;;;;;186.35;47.78;;;2.60;99.90;;;1.32;100.00;98682.81;5085431;28;20416;-77
2023/01/25 09:39:48;;;;;;;180.13;44.05;;;2.60;99.90;;;1.33;100.00;98680.03;5068578;28;20401;-77
2023/01/25 09:42:46;;;;;;;186.23;43.42;;;2.60;99.90;;;1.32;100.00;98686.22;5074522;28;20426;-75
2023/01/25 09:45:30;;;;;;;153.90;39.70;;;2.60;99.90;;;1.37;100.00;98677.91;5074608;28;20550;-76
2023/01/25 09:48:03;;;;;;;182.80;42.78;;;2.60;99.90;;;1.35;100.00;98682.50;5087745;28;20490;-76
2023/01/25 09:50:37;;;;;;;164.05;41.10;;;2.60;99.90;;;1.36;100.00;98686.72;5084724;28;20396;-77
2023/01/25 09:53:34;;;;;;;164.45;39.50;;;2.60;99.90;;;1.34;100.00;98676.47;5073487;28;20406;-78
2023/01/25 09:56:08;;;;;;;170.20;40.77;;;2.60;99.90;;;1.35;100.00;98680.69;5079097;28;20413;-77
2023/01/25 09:58:39;;;;;;;154.50;39.33;;;2.60;99.90;;;1.37;100.00;98681.34;5090036;28;20883;-76
2023/01/25 10:01:19;;;;;;;167.63;40.15;;;2.60;99.90;;;1.39;100.00;98683.78;5086910;28;20418;-78
2023/01/25 10:03:54;;;;;;;160.10;41.45;;;2.70;99.90;;;1.38;100.00;98682.97;5063532;28;20931;-80
2023/01/25 10:06:28;;;;;;;160.48;40.70;;;2.60;99.90;;;1.40;100.00;98675.81;5057454;28;20408;-77
2023/01/25 10:09:02;;;;;;;156.95;40.65;;;2.60;99.90;;;1.40;100.00;98672.38;5070116;28;20400;-77